Time;durP1;ratioP1;P1;durP2;ratioP2;P2;SDS_P1;SDS_P2;PMS_P1;PMS_P2;Temp;Humidity;BMP_temperature;BMP_pressure;BME280_temperature;BME280_humidity;BME280_pressure;Samples;Min_cycle;Max_cycle;Signal;HPM_P1;HPM_P2
2021/09/19 00:01:24;;;;;;;9.30;5.85;;;;;;;14.08;100.00;93150.78;5091453;28;20157;-76
2021/09/19 00:03:52;;;;;;;8.43;6.40;;;;;;;14.11;100.00;93152.88;5091112;28;20518;-76
2021/09/19 00:06:19;;;;;;;11.88;6.18;;;;;;;14.12;100.00;93151.88;5091296;28;20056;-76
2021/09/19 00:08:46;;;;;;;8.18;6.32;;;;;;;14.22;100.00;93158.22;5091375;28;20048;-76
2021/09/19 00:11:13;;;;;;;8.05;6.20;;;;;;;14.18;100.00;93133.88;5091001;28;20051;-76
2021/09/19 00:13:40;;;;;;;7.28;5.88;;;;;;;14.37;100.00;93137.00;5091133;28;20051;-76
2021/09/19 00:16:07;;;;;;;9.48;6.90;;;;;;;14.46;100.00;93130.44;5090934;28;20047;-76
2021/09/19 00:18:33;;;;;;;8.13;6.55;;;;;;;14.52;100.00;93132.09;5091241;28;20055;-76
2021/09/19 00:21:01;;;;;;;7.32;6.45;;;;;;;14.57;100.00;93121.81;5091018;28;20052;-76
2021/09/19 00:23:28;;;;;;;7.13;6.20;;;;;;;14.60;100.00;93122.38;5091218;28;20729;-76
2021/09/19 00:25:55;;;;;;;7.20;6.20;;;;;;;14.69;100.00;93129.47;5089875;28;20048;-76
2021/09/19 00:28:22;;;;;;;7.63;6.63;;;;;;;14.67;100.00;93123.78;5090895;28;20048;-76
2021/09/19 00:30:49;;;;;;;6.60;5.78;;;;;;;14.73;100.00;93129.00;5090792;28;20908;-76
2021/09/19 00:33:15;;;;;;;7.20;5.65;;;;;;;14.78;100.00;93111.81;5090993;28;20048;-76
2021/09/19 00:35:42;;;;;;;7.10;5.70;;;;;;;14.78;100.00;93096.31;5090727;28;20483;-76
2021/09/19 00:38:11;;;;;;;5.63;4.68;;;;;;;14.79;100.00;93097.84;5090536;28;20539;-76
2021/09/19 00:40:37;;;;;;;5.20;4.35;;;;;;;14.77;100.00;93084.38;5090865;28;20411;-76
2021/09/19 00:43:04;;;;;;;4.43;3.70;;;;;;;14.64;100.00;93071.75;5090767;28;20101;-76
2021/09/19 00:45:31;;;;;;;4.70;4.25;;;;;;;14.65;100.00;93086.25;5090272;28;20058;-76
2021/09/19 00:47:59;;;;;;;4.85;4.22;;;;;;;14.58;100.00;93076.06;5090791;28;20047;-76
2021/09/19 00:50:27;;;;;;;4.90;4.38;;;;;;;14.56;100.00;93084.09;5090395;28;20566;-76
2021/09/19 00:52:54;;;;;;;5.35;4.55;;;;;;;14.54;100.00;93085.34;5090171;28;20044;-76
2021/09/19 00:55:22;;;;;;;5.13;4.53;;;;;;;14.47;100.00;93077.75;5090601;28;20063;-76
2021/09/19 00:57:51;;;;;;;6.32;3.95;;;;;;;14.49;100.00;93086.03;5090320;28;20505;-76
2021/09/19 01:00:21;;;;;;;5.90;4.88;;;;;;;14.41;100.00;93087.19;5090517;28;20047;-76
2021/09/19 01:02:49;;;;;;;6.32;4.00;;;;;;;14.41;100.00;93094.19;5090412;28;20048;-76
2021/09/19 01:05:17;;;;;;;5.95;4.20;;;;;;;14.34;100.00;93088.41;5090670;28;20139;-76
2021/09/19 01:07:44;;;;;;;5.22;3.95;;;;;;;14.30;100.00;93088.06;5089969;28;20477;-76
2021/09/19 01:10:12;;;;;;;5.13;4.43;;;;;;;14.22;100.00;93075.56;5089755;28;20051;-76
2021/09/19 01:12:41;;;;;;;4.60;3.97;;;;;;;14.16;100.00;93074.69;5090078;28;20529;-76
2021/09/19 01:15:10;;;;;;;4.90;4.40;;;;;;;14.05;100.00;93065.22;5089937;28;20434;-76
2021/09/19 01:17:39;;;;;;;5.13;4.50;;;;;;;13.97;100.00;93072.34;5090201;28;20048;-76
2021/09/19 01:20:09;;;;;;;4.88;4.30;;;;;;;13.91;100.00;93068.13;5089895;28;20498;-76
2021/09/19 01:22:38;;;;;;;4.90;4.07;;;;;;;13.88;100.00;93064.19;5090126;28;20043;-76
2021/09/19 01:25:09;;;;;;;5.32;4.80;;;;;;;13.85;100.00;93079.38;5089991;28;20044;-76
2021/09/19 01:27:36;;;;;;;8.20;4.75;;;;;;;13.74;100.00;93073.25;5090065;28;20445;-76
2021/09/19 01:30:03;;;;;;;9.18;7.00;;;;;;;13.49;100.00;93070.00;5090023;28;20047;-76
2021/09/19 01:32:30;;;;;;;11.85;7.80;;;;;;;13.26;100.00;93063.09;5089609;28;20040;-76
2021/09/19 01:34:57;;;;;;;15.20;10.48;;;;;;;13.00;100.00;93064.41;5089987;28;20093;-76
2021/09/19 01:37:24;;;;;;;10.30;8.40;;;;;;;12.70;100.00;93041.13;5089647;28;20060;-76
2021/09/19 01:39:52;;;;;;;11.05;8.23;;;;;;;12.74;100.00;93069.03;5089682;28;20044;-76
2021/09/19 01:42:20;;;;;;;11.43;8.77;;;;;;;12.89;100.00;93066.00;5089812;28;20050;-77
2021/09/19 01:44:47;;;;;;;12.48;8.63;;;;;;;12.99;100.00;93078.28;5089553;28;20517;-77
2021/09/19 01:47:13;;;;;;;9.32;7.15;;;;;;;13.20;100.00;93082.84;5089264;28;20040;-76
2021/09/19 01:49:45;;;;;;;6.80;5.90;;;;;;;13.30;100.00;93081.47;5089484;28;20097;-77
2021/09/19 01:52:12;;;;;;;7.53;6.03;;;;;;;13.20;100.00;93054.47;5048653;28;20098;-77
2021/09/19 01:54:39;;;;;;;5.88;5.13;;;;;;;13.40;100.00;93073.94;5069153;28;20510;-77
2021/09/19 01:57:06;;;;;;;6.28;5.28;;;;;;;13.43;100.00;93072.69;5069440;28;20467;-77
2021/09/19 01:59:35;;;;;;;6.25;5.13;;;;;;;13.32;100.00;93048.50;5069380;28;20047;-76
2021/09/19 02:02:02;;;;;;;5.88;5.28;;;;;;;13.56;100.00;93082.75;5069202;28;20060;-76
2021/09/19 02:04:31;;;;;;;6.30;5.30;;;;;;;13.59;100.00;93078.94;5069289;28;20210;-76
2021/09/19 02:06:58;;;;;;;7.25;5.32;;;;;;;13.59;100.00;93074.56;5069176;28;20051;-76
2021/09/19 02:09:25;;;;;;;5.97;5.05;;;;;;;13.58;100.00;93079.94;5069304;28;20044;-77
2021/09/19 02:11:52;;;;;;;8.60;5.38;;;;;;;13.61;100.00;93077.69;5069204;28;20103;-76
2021/09/19 02:14:18;;;;;;;6.55;4.70;;;;;;;13.68;100.00;93074.97;5068968;28;20041;-76
2021/09/19 02:16:46;;;;;;;5.82;4.95;;;;;;;13.60;100.00;93052.09;5068949;28;20049;-76
2021/09/19 02:19:13;;;;;;;5.25;4.70;;;;;;;13.69;100.00;93060.25;5069184;28;20072;-76
2021/09/19 02:21:40;;;;;;;6.63;4.28;;;;;;;13.47;100.00;93058.34;5068930;28;20041;-76
2021/09/19 02:24:07;;;;;;;5.20;4.70;;;;;;;13.52;100.00;93068.75;5068965;28;20488;-76
2021/09/19 02:26:34;;;;;;;5.28;4.18;;;;;;;13.58;100.00;93062.69;5069018;28;20529;-76
2021/09/19 02:29:01;;;;;;;4.40;4.00;;;;;;;13.60;100.00;93065.81;5069115;28;20087;-76
2021/09/19 02:31:28;;;;;;;5.05;4.07;;;;;;;13.66;100.00;93069.25;5069197;28;20060;-76
2021/09/19 02:33:56;;;;;;;4.35;3.92;;;;;;;13.48;100.00;93036.69;5068922;28;20045;-76
2021/09/19 02:36:23;;;;;;;4.20;3.75;;;;;;;13.78;100.00;93071.00;5069038;28;20052;-76
2021/09/19 02:38:50;;;;;;;4.90;4.40;;;;;;;13.82;100.00;93062.56;5068795;28;20059;-76
2021/09/19 02:41:17;;;;;;;4.65;3.92;;;;;;;13.81;100.00;93057.63;5068999;28;20044;-76
2021/09/19 02:43:44;;;;;;;6.07;4.85;;;;;;;13.77;100.00;93062.47;5068639;28;20052;-77
2021/09/19 02:46:10;;;;;;;4.53;3.85;;;;;;;13.77;100.00;93052.13;5068962;28;20044;-77
2021/09/19 02:48:37;;;;;;;5.85;4.30;;;;;;;13.74;100.00;93061.13;5069561;28;20052;-76
2021/09/19 02:51:05;;;;;;;5.90;4.57;;;;;;;13.63;100.00;93054.22;5072498;28;20098;-76
2021/09/19 02:53:32;;;;;;;6.10;4.30;;;;;;;13.66;100.00;93066.66;5072494;28;20056;-77
2021/09/19 02:55:59;;;;;;;7.43;4.75;;;;;;;13.66;100.00;93074.41;5072294;28;20049;-76
2021/09/19 02:58:26;;;;;;;5.70;4.50;;;;;;;13.60;100.00;93058.06;5072585;28;20052;-76
2021/09/19 03:00:53;;;;;;;5.78;4.30;;;;;;;13.58;100.00;93061.88;5072027;28;20041;-76
2021/09/19 03:03:21;;;;;;;5.80;4.38;;;;;;;13.58;100.00;93060.09;5072405;28;20430;-76
2021/09/19 03:05:47;;;;;;;10.40;4.97;;;;;;;13.56;100.00;93051.03;5072041;28;20056;-76
2021/09/19 03:08:16;;;;;;;5.82;4.50;;;;;;;13.52;100.00;93055.06;5072429;28;20049;-76
2021/09/19 03:10:42;;;;;;;5.50;4.15;;;;;;;13.50;100.00;93055.28;5072417;28;20048;-76
2021/09/19 03:13:09;;;;;;;5.25;4.40;;;;;;;13.47;100.00;93058.34;5072167;28;20049;-76
2021/09/19 03:15:36;;;;;;;4.90;3.72;;;;;;;13.46;100.00;93065.31;5072085;28;20408;-76
2021/09/19 03:18:04;;;;;;;5.95;4.57;;;;;;;13.30;100.00;93027.31;5072272;28;20055;-76
2021/09/19 03:20:32;;;;;;;5.18;4.07;;;;;;;13.52;100.00;93052.50;5072116;28;20054;-76
2021/09/19 03:22:59;;;;;;;5.03;4.28;;;;;;;13.54;100.00;93058.19;5071747;28;20055;-76
2021/09/19 03:25:27;;;;;;;6.05;4.28;;;;;;;13.58;100.00;93061.88;5071981;28;20450;-76
2021/09/19 03:27:54;;;;;;;5.07;4.18;;;;;;;13.62;100.00;93066.34;5072076;28;20118;-76
2021/09/19 03:30:20;;;;;;;7.13;4.90;;;;;;;13.67;100.00;93065.66;5071829;28;20048;-76
2021/09/19 03:32:47;;;;;;;4.47;3.97;;;;;;;13.65;100.00;93059.16;5072070;28;20048;-76
2021/09/19 03:35:14;;;;;;;5.28;3.85;;;;;;;13.70;100.00;93056.69;5071544;28;20045;-76
2021/09/19 03:37:41;;;;;;;5.90;4.68;;;;;;;13.74;100.00;93048.22;5071992;28;20053;-76
2021/09/19 03:40:10;;;;;;;6.00;4.50;;;;;;;13.70;100.00;93054.88;5071475;28;20048;-76
2021/09/19 03:42:39;;;;;;;5.93;4.10;;;;;;;13.66;100.00;93034.91;5071556;28;20045;-76
2021/09/19 03:45:07;;;;;;;4.75;3.75;;;;;;;13.66;100.00;93047.81;5071660;28;20056;-76
2021/09/19 03:47:34;;;;;;;4.50;3.88;;;;;;;13.71;100.00;93053.84;5071743;28;20050;-76
2021/09/19 03:50:01;;;;;;;5.22;4.15;;;;;;;13.71;100.00;93056.41;5071747;28;20073;-76
2021/09/19 03:52:28;;;;;;;5.00;3.70;;;;;;;13.72;100.00;93049.47;5071698;28;20078;-77
2021/09/19 03:54:55;;;;;;;4.80;3.83;;;;;;;13.72;100.00;93047.69;5071257;28;20177;-77
2021/09/19 03:57:22;;;;;;;4.82;3.97;;;;;;;13.72;100.00;93050.25;5071316;28;20055;-77
2021/09/19 03:59:50;;;;;;;4.95;4.00;;;;;;;13.49;100.00;93021.00;5071090;28;20049;-77
2021/09/19 04:02:17;;;;;;;6.18;3.55;;;;;;;13.51;100.00;93022.53;5071297;28;20053;-76
2021/09/19 04:04:43;;;;;;;4.47;3.72;;;;;;;13.64;100.00;93035.16;5071396;28;20045;-76
2021/09/19 04:09:54;;;;;;;4.22;3.80;;;;;;;13.68;100.00;93036.25;5071385;28;20511;-76
2021/09/19 04:12:21;;;;;;;4.65;3.72;;;;;;;13.70;100.00;93038.59;5071284;28;20101;-77
2021/09/19 04:14:48;;;;;;;5.43;4.07;;;;;;;13.74;100.00;93060.34;5071286;28;20454;-77
2021/09/19 04:17:16;;;;;;;5.50;3.60;;;;;;;13.74;100.00;93052.59;5070795;28;20510;-77
2021/09/19 04:19:43;;;;;;;4.63;4.10;;;;;;;13.71;100.00;93053.06;5070821;28;20498;-77
2021/09/19 04:22:10;;;;;;;8.13;3.97;;;;;;;13.72;100.00;93049.47;5066010;28;20044;-76
2021/09/19 04:24:36;;;;;;;6.30;4.28;;;;;;;13.75;100.00;93047.22;5062757;28;20056;-76
2021/09/19 04:27:04;;;;;;;5.82;4.90;;;;;;;13.72;100.00;93050.25;5060003;28;20451;-76
2021/09/19 04:29:32;;;;;;;5.03;4.32;;;;;;;13.64;100.00;93050.63;5065740;28;20135;-76
2021/09/19 04:31:59;;;;;;;6.00;5.05;;;;;;;13.75;100.00;93056.75;5065296;28;20052;-77
2021/09/19 04:34:27;;;;;;;6.63;4.80;;;;;;;13.73;100.00;93057.00;5070491;28;20526;-77
2021/09/19 04:36:54;;;;;;;7.28;4.90;;;;;;;13.82;100.00;93054.81;5070666;28;20396;-77
2021/09/19 04:39:21;;;;;;;6.40;4.55;;;;;;;13.83;100.00;93064.13;5070620;28;20415;-77
2021/09/19 04:41:48;;;;;;;7.00;5.00;;;;;;;13.78;100.00;93052.94;5053103;28;20053;-77
2021/09/19 04:44:15;;;;;;;6.00;4.30;;;;;;;13.89;100.00;93076.09;5050641;28;20056;-76
2021/09/19 04:46:41;;;;;;;7.20;4.93;;;;;;;13.90;100.00;93072.47;5050364;28;20060;-77
2021/09/19 04:49:08;;;;;;;5.57;4.82;;;;;;;13.89;100.00;93070.16;5050640;28;20118;-77
2021/09/19 04:51:36;;;;;;;8.25;5.13;;;;;;;13.93;100.00;93066.06;5050537;28;20402;-77
2021/09/19 04:54:03;;;;;;;6.82;4.53;;;;;;;13.96;100.00;93065.63;5050534;28;20049;-79
2021/09/19 04:56:30;;;;;;;5.47;4.53;;;;;;;13.92;100.00;93061.16;5055774;28;20427;-79
2021/09/19 04:58:57;;;;;;;6.50;4.32;;;;;;;14.06;100.00;93062.41;5070347;28;20056;-79
2021/09/19 05:01:24;;;;;;;6.03;5.00;;;;;;;14.08;100.00;93060.38;5070020;28;20045;-79
2021/09/19 05:03:51;;;;;;;8.80;5.25;;;;;;;14.12;100.00;93060.69;5070027;28;20056;-79
2021/09/19 05:06:18;;;;;;;6.68;4.93;;;;;;;14.21;100.00;93063.66;5070246;28;20052;-79
2021/09/19 05:08:48;;;;;;;7.45;5.45;;;;;;;14.23;100.00;93075.34;5069658;28;20045;-80
2021/09/19 05:11:15;;;;;;;5.43;4.47;;;;;;;13.97;100.00;93046.53;5069309;28;20048;-79
2021/09/19 05:13:41;;;;;;;6.38;4.68;;;;;;;13.69;100.00;93068.78;5069731;28;20492;-79
2021/09/19 05:16:08;;;;;;;7.22;5.57;;;;;;;13.58;100.00;93070.41;5069676;28;20063;-79
2021/09/19 05:18:35;;;;;;;8.15;5.55;;;;;;;13.66;100.00;93058.16;5058780;28;20048;-79
2021/09/19 05:21:02;;;;;;;7.75;4.95;;;;;;;13.79;100.00;93063.00;5062393;28;20458;-79
2021/09/19 05:23:29;;;;;;;6.40;4.93;;;;;;;13.80;100.00;93046.50;5063536;28;20049;-79
2021/09/19 05:25:58;;;;;;;8.45;5.53;;;;;;;13.84;100.00;93041.66;5058454;28;20055;-79
2021/09/19 05:28:24;;;;;;;6.00;5.07;;;;;;;14.04;100.00;93061.88;5058564;28;20044;-79
2021/09/19 05:30:52;;;;;;;7.15;5.15;;;;;;;14.05;100.00;93078.91;5055043;28;20391;-79
2021/09/19 05:33:18;;;;;;;7.97;5.07;;;;;;;14.03;100.00;93079.16;5054214;28;20045;-79
2021/09/19 05:35:45;;;;;;;6.22;4.82;;;;;;;14.09;100.00;93077.44;5049645;28;20393;-79
2021/09/19 05:38:12;;;;;;;7.18;5.40;;;;;;;13.99;100.00;93088.38;5049714;28;20835;-79
2021/09/19 05:40:41;;;;;;;6.57;5.43;;;;;;;13.97;100.00;93059.44;5049637;28;20052;-80
2021/09/19 05:43:09;;;;;;;14.27;7.53;;;;;;;13.92;100.00;93040.50;5056061;28;20045;-79
2021/09/19 05:45:35;;;;;;;7.35;5.47;;;;;;;14.22;100.00;93066.03;5067967;28;20044;-79
2021/09/19 05:48:02;;;;;;;6.88;5.25;;;;;;;14.22;100.00;93053.09;5069021;28;20048;-79
2021/09/19 05:50:29;;;;;;;21.45;10.18;;;;;;;14.36;100.00;93053.56;5069246;28;20102;-79
2021/09/19 05:52:56;;;;;;;9.13;7.03;;;;;;;14.53;100.00;93052.72;5069236;28;20056;-80
2021/09/19 05:55:23;;;;;;;7.45;5.60;;;;;;;14.57;100.00;93048.66;5069405;28;20049;-79
2021/09/19 05:57:50;;;;;;;5.82;4.65;;;;;;;14.72;100.00;93058.41;5069158;28;20044;-79
2021/09/19 06:00:19;;;;;;;5.28;4.30;;;;;;;14.82;100.00;93062.97;5069166;28;20709;-79
2021/09/19 06:02:45;;;;;;;5.13;4.63;;;;;;;14.82;100.00;93048.25;5065037;28;20056;-79
2021/09/19 06:05:12;;;;;;;5.28;3.92;;;;;;;15.05;100.00;93056.78;5051632;28;20053;-79
2021/09/19 06:07:39;;;;;;;6.70;4.38;;;;;;;15.15;100.00;93060.53;5049281;28;20056;-79
2021/09/19 06:10:08;;;;;;;6.78;4.60;;;;;;;15.18;100.00;93041.94;5049143;28;20053;-79
2021/09/19 06:12:34;;;;;;;4.90;4.10;;;;;;;15.41;100.00;93061.56;5048986;28;20057;-79
2021/09/19 06:15:02;;;;;;;6.40;4.70;;;;;;;15.57;100.00;93061.72;5049323;28;20091;-79
2021/09/19 06:17:31;;;;;;;6.80;4.60;;;;;;;15.79;100.00;93059.09;5059508;28;20067;-79
2021/09/19 06:19:59;;;;;;;7.28;4.68;;;;;;;15.95;100.00;93065.22;5068841;28;20045;-79
2021/09/19 06:22:26;;;;;;;6.35;4.20;;;;;;;16.07;100.00;93051.31;5069190;28;20442;-79
2021/09/19 06:24:53;;;;;;;5.57;4.15;;;;;;;16.21;100.00;93041.31;5071665;28;20056;-79
2021/09/19 06:27:20;;;;;;;4.55;3.90;;;;;;;16.30;100.00;93050.19;5073210;28;20048;-79
2021/09/19 06:29:48;;;;;;;4.80;4.00;;;;;;;16.43;100.00;93051.56;5072841;28;20048;-79
2021/09/19 06:32:15;;;;;;;4.93;3.50;;;;;;;16.68;100.00;93071.69;5053580;28;20053;-79
2021/09/19 06:34:43;;;;;;;6.50;3.92;;;;;;;16.86;100.00;93068.94;5049389;28;20583;-80
2021/09/19 06:37:10;;;;;;;5.32;3.22;;;;;;;17.01;100.00;93076.78;5050627;28;20420;-79
2021/09/19 06:39:37;;;;;;;6.00;3.50;;;;;;;17.19;99.07;93073.00;5052081;28;20048;-78
2021/09/19 06:42:04;;;;;;;4.03;3.15;;;;;;;17.32;97.56;93073.56;5052649;28;20474;-78
2021/09/19 06:44:31;;;;;;;4.45;3.67;;;;;;;17.40;98.39;93061.91;5052241;28;20052;-78
2021/09/19 06:46:58;;;;;;;5.45;3.60;;;;;;;17.47;96.53;93065.81;5052792;28;20057;-78
2021/09/19 06:49:26;;;;;;;4.20;3.35;;;;;;;17.59;96.24;93065.56;5052297;28;20044;-78
2021/09/19 06:51:54;;;;;;;4.10;3.25;;;;;;;17.52;95.18;93049.47;5052266;28;20517;-78
2021/09/19 06:54:21;;;;;;;5.38;3.47;;;;;;;17.71;96.53;93075.72;5052659;28;20052;-78
2021/09/19 06:56:48;;;;;;;4.60;3.60;;;;;;;17.72;96.11;93071.31;5052648;28;20052;-78
2021/09/19 06:59:16;;;;;;;4.65;2.85;;;;;;;17.53;96.12;93063.25;5052310;28;20493;-79
2021/09/19 07:01:43;;;;;;;7.97;3.03;;;;;;;17.81;97.54;93072.38;5052164;28;20151;-78
2021/09/19 07:04:10;;;;;;;4.15;2.97;;;;;;;17.99;96.95;93070.31;5051931;28;20052;-78
2021/09/19 07:06:37;;;;;;;5.72;3.10;;;;;;;18.15;96.94;93071.13;5052466;28;20053;-77
2021/09/19 07:09:05;;;;;;;4.15;2.50;;;;;;;18.26;95.07;93064.09;5051926;28;20041;-77
2021/09/19 07:11:32;;;;;;;7.78;4.18;;;;;;;18.19;95.21;93037.59;5052041;28;20049;-78
2021/09/19 07:13:59;;;;;;;13.13;7.03;;;;;;;18.19;95.78;93050.59;5052012;28;20060;-78
2021/09/19 07:16:26;;;;;;;12.15;8.00;;;;;;;18.18;97.05;93052.41;5053606;28;20044;-78
2021/09/19 07:18:53;;;;;;;12.63;7.57;;;;;;;17.98;97.70;93046.16;5071464;28;20487;-78
2021/09/19 07:21:22;;;;;;;13.52;8.00;;;;;;;18.10;96.76;93051.09;5071718;28;20040;-78
2021/09/19 07:23:48;;;;;;;11.82;6.65;;;;;;;18.25;97.21;93059.94;5072021;28;20048;-78
2021/09/19 07:26:17;;;;;;;12.05;6.93;;;;;;;18.05;96.70;93030.28;5071611;28;20052;-78
2021/09/19 07:28:44;;;;;;;14.00;7.80;;;;;;;17.86;95.57;93056.78;5072026;28;20178;-78
2021/09/19 07:31:11;;;;;;;14.77;7.63;;;;;;;17.72;98.08;93071.31;5061446;28;20049;-77
2021/09/19 07:33:38;;;;;;;15.38;7.72;;;;;;;17.81;98.20;93066.41;5053382;28;20056;-78
2021/09/19 07:36:07;;;;;;;12.50;7.40;;;;;;;18.01;97.67;93076.81;5068029;28;20049;-78
2021/09/19 07:38:34;;;;;;;13.90;7.57;;;;;;;18.11;96.31;93070.88;5071373;28;20044;-78
2021/09/19 07:41:01;;;;;;;20.38;8.70;;;;;;;18.36;96.42;93077.09;5071485;28;20495;-78
2021/09/19 07:43:30;;;;;;;16.08;9.35;;;;;;;18.49;96.95;93083.59;5071762;28;20052;-78
2021/09/19 07:45:57;;;;;;;18.63;10.48;;;;;;;18.50;96.82;93069.53;5071621;28;20060;-78
2021/09/19 07:48:25;;;;;;;20.42;10.55;;;;;;;18.70;97.05;93086.16;5071346;28;20056;-78
2021/09/19 07:50:52;;;;;;;16.13;9.80;;;;;;;18.72;98.40;93085.88;5071133;28;20052;-78
2021/09/19 07:53:19;;;;;;;16.85;7.93;;;;;;;18.65;97.65;93088.78;5071571;28;20048;-79
2021/09/19 07:55:46;;;;;;;16.52;8.55;;;;;;;18.48;98.39;93078.66;5070855;28;20060;-79
2021/09/19 07:58:13;;;;;;;13.63;8.40;;;;;;;18.44;98.94;93065.38;5071486;28;20052;-79
2021/09/19 08:00:41;;;;;;;12.98;7.43;;;;;;;18.20;98.36;93083.34;5071583;28;20044;-78
2021/09/19 08:03:08;;;;;;;15.20;7.97;;;;;;;18.24;100.00;93084.38;5071332;28;20048;-79
2021/09/19 08:05:35;;;;;;;16.88;8.45;;;;;;;17.83;100.00;93085.09;5070851;28;20048;-78
2021/09/19 08:08:02;;;;;;;17.67;9.38;;;;;;;17.66;100.00;93080.13;5070798;28;20491;-78
2021/09/19 08:10:29;;;;;;;16.88;9.40;;;;;;;17.56;100.00;93081.69;5071255;28;20040;-78
2021/09/19 08:12:55;;;;;;;16.10;8.52;;;;;;;17.68;100.00;93084.03;5071111;28;20502;-78
2021/09/19 08:15:23;;;;;;;19.48;9.27;;;;;;;18.05;100.00;93090.06;5070768;28;20504;-79
2021/09/19 08:17:52;;;;;;;19.38;9.55;;;;;;;18.22;100.00;93081.25;5057392;28;20586;-78
2021/09/19 08:20:19;;;;;;;18.42;9.73;;;;;;;18.48;100.00;93089.84;5051272;28;20106;-78
2021/09/19 08:22:46;;;;;;;20.30;9.23;;;;;;;18.56;100.00;93078.09;5051191;28;20515;-78
2021/09/19 08:25:14;;;;;;;13.50;7.68;;;;;;;18.77;99.09;93097.06;5050663;28;20053;-79
2021/09/19 08:27:42;;;;;;;18.23;8.63;;;;;;;18.93;96.92;93084.81;5050511;28;20045;-79
2021/09/19 08:30:11;;;;;;;17.27;8.63;;;;;;;18.96;96.36;93080.88;5052287;28;20052;-79
2021/09/19 08:32:38;;;;;;;23.67;8.93;;;;;;;19.00;96.72;93066.31;5070729;28;20052;-78
2021/09/19 08:35:10;;;;;;;15.70;8.95;;;;;;;19.18;96.77;93091.00;5070659;28;20048;-79
2021/09/19 08:37:36;;;;;;;16.95;8.32;;;;;;;19.20;97.81;93094.13;5070283;28;20139;-78
2021/09/19 08:40:04;;;;;;;17.77;9.35;;;;;;;19.30;96.87;93110.75;5070637;28;20048;-79
2021/09/19 08:42:32;;;;;;;16.70;7.05;;;;;;;19.22;96.05;93120.66;5070098;28;20048;-79
2021/09/19 08:44:59;;;;;;;13.23;6.82;;;;;;;19.12;96.00;93119.94;5070211;28;20048;-78
2021/09/19 08:47:30;;;;;;;11.85;7.25;;;;;;;19.23;97.09;93111.03;5069441;28;20113;-79
2021/09/19 08:49:57;;;;;;;11.95;6.85;;;;;;;19.28;97.03;93105.03;5070413;28;20442;-79
2021/09/19 08:52:25;;;;;;;15.00;7.38;;;;;;;19.31;95.96;93110.47;5070393;28;20048;-79
2021/09/19 08:54:52;;;;;;;12.00;7.32;;;;;;;19.34;95.01;93112.56;5069870;28;20044;-78
2021/09/19 08:57:19;;;;;;;13.63;6.38;;;;;;;19.31;95.77;93110.47;5070097;28;20052;-79
2021/09/19 08:59:48;;;;;;;10.10;5.90;;;;;;;19.28;97.51;93107.63;5069795;28;20048;-78
2021/09/19 09:02:15;;;;;;;15.68;6.32;;;;;;;18.66;100.00;93085.13;5070097;28;20102;-78
2021/09/19 09:04:43;;;;;;;10.77;7.43;;;;;;;18.85;100.00;93100.97;5070143;28;20048;-78
2021/09/19 09:07:10;;;;;;;10.20;6.10;;;;;;;18.76;100.00;93103.34;5069743;28;20056;-78
2021/09/19 09:09:39;;;;;;;12.93;7.35;;;;;;;18.69;100.00;93093.19;5069497;28;20048;-78
2021/09/19 09:12:08;;;;;;;10.60;5.78;;;;;;;18.61;100.00;93090.34;5046001;28;20514;-77
2021/09/19 09:15:00;;;;;;;12.40;6.35;;;;;;;18.65;100.00;93099.19;5070008;28;20475;-76
2021/09/19 09:17:29;;;;;;;11.75;6.32;;;;;;;18.26;100.00;93093.50;5069935;28;20049;-76
2021/09/19 09:19:58;;;;;;;12.38;6.90;;;;;;;17.83;100.00;93069.50;5069573;28;20052;-77
2021/09/19 09:22:27;;;;;;;9.90;6.30;;;;;;;17.95;100.00;93075.25;5069950;28;20060;-77
2021/09/19 09:25:10;;;;;;;12.27;6.78;;;;;;;17.98;100.00;93092.13;5069568;28;20411;-77
2021/09/19 09:27:41;;;;;;;12.50;7.55;;;;;;;17.83;100.00;93074.72;5069818;28;20055;-77
2021/09/19 09:30:11;;;;;;;13.23;7.22;;;;;;;18.00;100.00;93071.84;5068326;28;20044;-77
2021/09/19 09:32:58;;;;;;;12.10;6.95;;;;;;;18.08;100.00;93055.00;5049543;28;20049;-77
2021/09/19 09:35:32;;;;;;;17.33;7.85;;;;;;;18.05;100.00;93056.25;5049495;28;20052;-77
2021/09/19 09:37:59;;;;;;;16.60;8.32;;;;;;;18.22;100.00;93076.84;5049803;28;20048;-77
2021/09/19 09:40:29;;;;;;;13.88;7.93;;;;;;;18.15;100.00;93071.91;5049451;28;20041;-78
2021/09/19 09:43:05;;;;;;;16.15;6.57;;;;;;;18.31;100.00;93058.91;5049739;28;20044;-77
2021/09/19 09:45:34;;;;;;;13.95;7.65;;;;;;;18.06;100.00;93059.66;5046895;28;20052;-77
2021/09/19 09:48:02;;;;;;;17.80;9.27;;;;;;;18.24;100.00;93045.41;5047072;28;20056;-77
2021/09/19 09:50:30;;;;;;;11.50;5.72;;;;;;;18.15;100.00;93009.50;5054499;28;20044;-77
2021/09/19 09:53:10;;;;;;;13.60;7.18;;;;;;;18.50;100.00;93037.53;5069516;28;20056;-77
2021/09/19 09:55:42;;;;;;;12.30;6.47;;;;;;;18.36;100.00;93032.88;5069505;28;20049;-77
2021/09/19 09:58:11;;;;;;;12.13;6.55;;;;;;;18.51;100.00;93034.69;5068799;28;20163;-77
2021/09/19 10:00:39;;;;;;;11.35;6.47;;;;;;;18.68;100.00;93033.59;5069347;28;20094;-76
2021/09/19 10:03:06;;;;;;;9.80;6.38;;;;;;;18.87;100.00;93023.41;5069186;28;20056;-76
2021/09/19 10:05:33;;;;;;;11.27;5.55;;;;;;;18.99;100.00;93028.31;5068946;28;20049;-77
2021/09/19 10:08:00;;;;;;;9.05;5.43;;;;;;;18.68;100.00;93028.41;5068886;28;21559;-77
2021/09/19 10:10:29;;;;;;;12.68;7.15;;;;;;;19.17;100.00;93019.13;5069233;28;20557;-77
2021/09/19 10:12:58;;;;;;;11.43;6.25;;;;;;;19.44;100.00;93012.75;5069197;28;20833;-77
2021/09/19 10:15:26;;;;;;;10.45;6.18;;;;;;;19.77;100.00;93015.66;5068884;28;20079;-77
2021/09/19 10:17:53;;;;;;;12.23;6.88;;;;;;;20.10;100.00;93017.81;5068589;28;20052;-77
2021/09/19 10:20:23;;;;;;;11.20;6.38;;;;;;;20.24;100.00;93017.94;5069272;28;20052;-77
2021/09/19 10:22:56;;;;;;;10.63;6.53;;;;;;;20.42;99.60;93024.28;5068991;28;20098;-77
2021/09/19 10:25:36;;;;;;;9.55;5.65;;;;;;;20.55;97.84;93022.88;5068930;28;20492;-77
2021/09/19 10:28:37;;;;;;;10.38;6.13;;;;;;;20.42;95.79;93029.50;5069050;28;20057;-77
2021/09/19 10:31:28;;;;;;;9.15;5.40;;;;;;;20.48;97.78;93024.25;5021642;28;20431;-77
2021/09/19 10:33:57;;;;;;;6.55;4.93;;;;;;;20.50;97.06;93004.66;5046857;28;20087;-77
2021/09/19 10:36:44;;;;;;;9.52;5.93;;;;;;;20.77;95.41;93020.81;5048625;28;20053;-78
2021/09/19 10:39:30;;;;;;;9.95;5.30;;;;;;;20.89;94.98;93026.47;5048466;28;20142;-78
2021/09/19 10:42:25;;;;;;;9.07;5.60;;;;;;;20.63;97.06;93023.31;5048481;28;20496;-77
2021/09/19 10:45:17;;;;;;;9.30;5.45;;;;;;;20.77;96.30;93020.81;5048454;28;20520;-77
2021/09/19 10:47:47;;;;;;;8.20;4.53;;;;;;;20.87;94.99;93014.75;5048612;28;20095;-78
2021/09/19 10:50:26;;;;;;;10.70;5.20;;;;;;;20.79;94.08;93011.66;5053593;28;20053;-78
2021/09/19 10:52:56;;;;;;;8.25;4.88;;;;;;;20.95;95.43;93024.56;5068336;28;20048;-77
2021/09/19 10:55:26;;;;;;;8.45;5.40;;;;;;;21.05;95.19;93027.06;5068613;28;20052;-77
2021/09/19 10:57:54;;;;;;;7.75;5.57;;;;;;;21.05;94.78;93019.22;5068361;28;20048;-78
2021/09/19 11:00:24;;;;;;;7.97;5.03;;;;;;;20.98;95.84;93007.56;5069072;28;20098;-78
2021/09/19 11:03:08;;;;;;;7.47;5.50;;;;;;;20.90;93.28;93001.91;5068202;28;20107;-78
2021/09/19 11:05:38;;;;;;;9.23;6.13;;;;;;;20.99;94.30;93003.88;5068465;28;20059;-78
2021/09/19 11:08:15;;;;;;;6.40;4.90;;;;;;;21.11;94.67;92993.84;5068269;28;20760;-77
2021/09/19 11:11:26;;;;;;;7.63;5.15;;;;;;;21.13;89.93;92991.72;5071208;28;20044;-77
2021/09/19 11:13:56;;;;;;;6.47;4.45;;;;;;;21.30;89.59;93004.28;5072008;28;20098;-77
2021/09/19 11:16:41;;;;;;;5.28;4.00;;;;;;;21.49;89.93;92991.22;5071907;28;20131;-77
2021/09/19 11:19:11;;;;;;;6.40;4.05;;;;;;;21.12;89.51;92986.75;5072266;28;20044;-78
2021/09/19 11:21:46;;;;;;;7.10;3.88;;;;;;;21.05;88.73;92992.31;5072083;28;20048;-78
2021/09/19 11:24:16;;;;;;;5.47;3.70;;;;;;;21.14;89.44;92988.03;5071815;28;20045;-78
2021/09/19 11:26:45;;;;;;;6.40;4.35;;;;;;;21.15;90.08;92986.97;5071538;28;20056;-78
2021/09/19 11:29:15;;;;;;;8.40;4.32;;;;;;;21.20;89.31;92991.38;5071848;28;20040;-78
2021/09/19 11:31:45;;;;;;;8.43;4.85;;;;;;;20.92;88.97;92988.59;5057724;28;20511;-79
2021/09/19 11:34:14;;;;;;;8.50;4.85;;;;;;;20.98;89.85;92978.84;5051578;28;20045;-79